createdAt,value
2016-03-05T00:00:04.504Z,0
2016-03-05T00:01:04.522Z,0
2016-03-05T00:02:04.540Z,0
2016-03-05T00:03:04.558Z,0
2016-03-05T00:04:04.592Z,0
2016-03-05T00:05:04.610Z,0
2016-03-05T00:06:05.270Z,0
2016-03-05T00:07:04.663Z,0
2016-03-05T00:08:04.650Z,0
2016-03-05T00:09:04.668Z,0
2016-03-05T00:10:04.670Z,0
2016-03-05T00:11:04.720Z,0
2016-03-05T00:12:04.707Z,0
2016-03-05T00:13:05.007Z,0
2016-03-05T00:14:04.963Z,0
2016-03-05T00:15:04.856Z,0
2016-03-05T00:16:04.765Z,0
2016-03-05T00:17:04.799Z,0
2016-03-05T00:18:04.818Z,0
2016-03-05T00:19:04.836Z,0
2016-03-05T00:20:04.838Z,0
2016-03-05T00:21:04.850Z,0
2016-03-05T00:22:04.857Z,0
2016-03-05T00:23:04.911Z,0
2016-03-05T00:24:04.902Z,0
2016-03-05T00:25:04.893Z,0
2016-03-05T00:26:04.889Z,0
2016-03-05T00:27:04.918Z,0
2016-03-05T00:28:04.904Z,0
2016-03-05T00:29:04.934Z,0
2016-03-05T00:30:05.303Z,0
2016-03-05T00:31:04.943Z,0
2016-03-05T00:32:04.976Z,0
2016-03-05T00:33:04.992Z,0
2016-03-05T00:34:05.057Z,0
2016-03-05T00:35:05.043Z,0
2016-03-05T00:36:05.059Z,0
2016-03-05T00:37:05.046Z,0
2016-03-05T00:38:05.079Z,0
2016-03-05T00:39:05.080Z,0
2016-03-05T00:40:05.098Z,0
2016-03-05T00:41:05.147Z,0
2016-03-05T00:42:05.119Z,0
2016-03-05T00:43:05.169Z,0
2016-03-05T00:44:05.171Z,0
2016-03-05T00:45:05.237Z,0
2016-03-05T00:46:05.192Z,0
2016-03-05T00:47:05.257Z,0
2016-03-05T00:48:05.228Z,0
2016-03-05T00:49:05.263Z,0
2016-03-05T00:50:05.281Z,0
2016-03-05T00:51:05.315Z,0
2016-03-05T00:52:05.302Z,0
2016-03-05T00:53:05.320Z,0
2016-03-05T00:54:05.338Z,0
2016-03-05T00:55:05.357Z,0
2016-03-05T00:56:05.376Z,0
2016-03-05T00:57:05.394Z,0
2016-03-05T00:58:05.412Z,0
2016-03-05T00:59:05.461Z,0
2016-03-05T01:00:05.449Z,0
2016-03-05T01:01:05.451Z,0
2016-03-05T01:02:05.469Z,0
2016-03-05T01:03:05.489Z,0
2016-03-05T01:04:05.538Z,0
2016-03-05T01:05:05.556Z,0
2016-03-05T01:06:05.527Z,0
2016-03-05T01:07:05.546Z,0
2016-03-05T01:08:05.563Z,0
2016-03-05T01:09:05.583Z,0
2016-03-05T01:10:05.601Z,0
2016-03-05T01:11:05.650Z,0
2016-03-05T01:12:05.637Z,0
2016-03-05T01:13:05.655Z,0
2016-03-05T01:14:05.501Z,0
2016-03-05T01:15:05.692Z,0
2016-03-05T01:16:05.695Z,0
2016-03-05T01:17:05.791Z,0
2016-03-05T01:18:05.748Z,0
2016-03-05T01:19:05.859Z,0
2016-03-05T01:20:05.768Z,0
2016-03-05T01:21:05.786Z,0
2016-03-05T01:22:05.789Z,0
2016-03-05T01:23:05.822Z,0
2016-03-05T01:24:05.857Z,0
2016-03-05T01:25:05.860Z,0
2016-03-05T01:26:05.878Z,0
2016-03-05T01:27:05.896Z,0
2016-03-05T01:28:05.914Z,0
2016-03-05T01:29:05.964Z,0
2016-03-05T01:30:05.936Z,0
2016-03-05T01:31:05.953Z,0
2016-03-05T01:32:05.972Z,0
2016-03-05T01:33:05.991Z,0
2016-03-05T01:34:06.041Z,0
2016-03-05T01:35:06.043Z,0
2016-03-05T01:36:06.045Z,0
2016-03-05T01:37:06.079Z,0
2016-03-05T01:38:06.083Z,0
2016-03-05T01:39:06.116Z,0
2016-03-05T01:40:06.103Z,0
2016-03-05T01:41:06.152Z,0
2016-03-05T01:42:06.155Z,0
2016-03-05T01:43:06.173Z,0
2016-03-05T01:44:06.192Z,0
2016-03-05T01:45:06.195Z,0
2016-03-05T01:46:06.229Z,0
2016-03-05T01:47:06.232Z,0
2016-03-05T01:48:06.249Z,0
2016-03-05T01:49:06.284Z,0
2016-03-05T01:50:06.286Z,0
2016-03-05T01:51:06.304Z,0
2016-03-05T01:52:06.338Z,0
2016-03-05T01:53:06.342Z,0
2016-03-05T01:54:06.376Z,0
2016-03-05T01:55:06.362Z,0
2016-03-05T01:56:06.380Z,0
2016-03-05T01:57:06.383Z,0
2016-03-05T01:58:06.417Z,0
2016-03-05T01:59:06.420Z,0
2016-03-05T02:00:06.438Z,0
2016-03-05T02:01:06.473Z,0
2016-03-05T02:02:06.491Z,0
2016-03-05T02:03:06.493Z,0
2016-03-05T02:04:06.542Z,0
2016-03-05T02:05:06.544Z,0
2016-03-05T02:06:06.548Z,0
2016-03-05T02:07:06.567Z,0
2016-03-05T02:08:06.569Z,0
2016-03-05T02:09:06.603Z,0
2016-03-05T02:10:06.605Z,0
2016-03-05T02:11:06.640Z,0
2016-03-05T02:12:06.657Z,0
2016-03-05T02:13:06.676Z,0
2016-03-05T02:14:06.695Z,0
2016-03-05T02:15:06.697Z,0
2016-03-05T02:16:06.763Z,0
2016-03-05T02:17:06.581Z,0
2016-03-05T02:18:06.803Z,0
2016-03-05T02:19:06.774Z,0
2016-03-05T02:20:06.793Z,0
2016-03-05T02:21:06.826Z,0
2016-03-05T02:22:06.829Z,0
2016-03-05T02:23:06.833Z,0
2016-03-05T02:24:06.866Z,0
2016-03-05T02:25:06.885Z,0
2016-03-05T02:26:06.902Z,0
2016-03-05T02:27:06.921Z,0
2016-03-05T02:28:06.923Z,0
2016-03-05T02:29:06.942Z,0
2016-03-05T02:30:06.960Z,0
2016-03-05T02:31:06.979Z,0
2016-03-05T02:32:06.996Z,0
2016-03-05T02:33:07.015Z,0
2016-03-05T02:34:07.034Z,0
2016-03-05T02:35:07.037Z,0
2016-03-05T02:36:07.054Z,0
2016-03-05T02:37:07.073Z,0
2016-03-05T02:38:07.107Z,0
2016-03-05T02:39:07.094Z,0
2016-03-05T02:40:07.128Z,0
2016-03-05T02:41:07.177Z,0
2016-03-05T02:42:07.180Z,0
2016-03-05T02:43:07.167Z,0
2016-03-05T02:44:07.201Z,0
2016-03-05T02:45:07.204Z,0
2016-03-05T02:46:07.269Z,0
2016-03-05T02:47:07.256Z,0
2016-03-05T02:48:07.274Z,0
2016-03-05T02:49:07.308Z,0
2016-03-05T02:50:07.310Z,0
2016-03-05T02:51:07.314Z,0
2016-03-05T02:52:07.364Z,0
2016-03-05T02:53:07.350Z,0
2016-03-05T02:54:07.353Z,0
2016-03-05T02:55:07.387Z,0
2016-03-05T02:56:07.390Z,0
2016-03-05T02:57:07.407Z,0
2016-03-05T02:58:07.441Z,0
2016-03-05T02:59:07.460Z,0
2016-03-05T03:00:07.463Z,0
2016-03-05T03:01:07.496Z,0
2016-03-05T03:02:07.546Z,0
2016-03-05T03:03:07.517Z,0
2016-03-05T03:04:07.536Z,0
2016-03-05T03:05:07.554Z,0
2016-03-05T03:06:07.572Z,0
2016-03-05T03:07:07.607Z,0
2016-03-05T03:08:07.656Z,0
2016-03-05T03:09:07.612Z,0
2016-03-05T03:10:07.630Z,0
2016-03-05T03:11:07.664Z,0
2016-03-05T03:12:07.667Z,0
2016-03-05T03:13:07.686Z,0
2016-03-05T03:14:07.704Z,0
2016-03-05T03:15:07.753Z,0
2016-03-05T03:16:07.740Z,0
2016-03-05T03:17:07.758Z,0
2016-03-05T03:18:07.761Z,0
2016-03-05T03:19:07.810Z,0
2016-03-05T03:20:07.814Z,0
2016-03-05T03:21:07.833Z,0
2016-03-05T03:22:07.850Z,0
2016-03-05T03:23:07.853Z,0
2016-03-05T03:24:07.871Z,0
2016-03-05T03:25:07.889Z,0
2016-03-05T03:26:07.907Z,0
2016-03-05T03:27:07.926Z,0
2016-03-05T03:28:07.991Z,0
2016-03-05T03:29:07.947Z,0
2016-03-05T03:30:07.966Z,0
2016-03-05T03:31:07.984Z,0
2016-03-05T03:32:08.002Z,0
2016-03-05T03:33:08.035Z,0
2016-03-05T03:34:08.054Z,0
2016-03-05T03:35:08.057Z,0
2016-03-05T03:36:08.091Z,0
2016-03-05T03:37:08.109Z,0
2016-03-05T03:38:08.112Z,0
2016-03-05T03:39:08.114Z,0
2016-03-05T03:40:08.133Z,0
2016-03-05T03:41:08.151Z,0
2016-03-05T03:42:08.185Z,0
2016-03-05T03:43:08.188Z,0
2016-03-05T03:44:08.207Z,0
2016-03-05T03:45:08.225Z,0
2016-03-05T03:46:08.227Z,0
2016-03-05T03:47:08.261Z,0
2016-03-05T03:48:08.280Z,0
2016-03-05T03:49:08.297Z,0
2016-03-05T03:50:08.301Z,0
2016-03-05T03:51:08.319Z,0
2016-03-05T03:52:08.353Z,0
2016-03-05T03:53:08.355Z,0
2016-03-05T03:54:08.374Z,0
2016-03-05T03:55:08.391Z,0
2016-03-05T03:56:08.410Z,0
2016-03-05T03:57:08.413Z,0
2016-03-05T03:58:08.447Z,0
2016-03-05T03:59:08.466Z,0
2016-03-05T04:00:08.499Z,0
2016-03-05T04:01:08.502Z,0
2016-03-05T04:02:08.504Z,0
2016-03-05T04:03:08.523Z,0
2016-03-05T04:04:08.540Z,0
2016-03-05T04:05:08.560Z,0
2016-03-05T04:06:08.579Z,0
2016-03-05T04:07:08.596Z,0
2016-03-05T04:08:08.599Z,0
2016-03-05T04:09:08.617Z,0
2016-03-05T04:10:08.651Z,0
2016-03-05T04:11:08.670Z,0
2016-03-05T04:12:08.673Z,0
2016-03-05T04:13:08.691Z,0
2016-03-05T04:14:08.709Z,0
2016-03-05T04:15:08.712Z,0
2016-03-05T04:16:08.745Z,0
2016-03-05T04:17:08.763Z,0
2016-03-05T04:18:08.766Z,0
2016-03-05T04:19:08.801Z,0
2016-03-05T04:20:08.834Z,0
2016-03-05T04:21:08.837Z,0
2016-03-05T04:22:08.856Z,0
2016-03-05T04:23:08.858Z,0
2016-03-05T04:24:08.891Z,0
2016-03-05T04:25:08.894Z,0
2016-03-05T04:26:08.929Z,0
2016-03-05T04:27:08.931Z,0
2016-03-05T04:28:08.966Z,0
2016-03-05T04:29:08.968Z,0
2016-03-05T04:30:08.971Z,0
2016-03-05T04:31:08.988Z,0
2016-03-05T04:32:09.038Z,0
2016-03-05T04:33:09.025Z,0
2016-03-05T04:34:09.075Z,0
2016-03-05T04:35:09.063Z,0
2016-03-05T04:36:09.080Z,0
2016-03-05T04:37:09.099Z,0
2016-03-05T04:38:09.132Z,0
2016-03-05T04:39:08.995Z,0
2016-03-05T04:40:09.137Z,0
2016-03-05T04:41:09.172Z,0
2016-03-05T04:42:09.176Z,0
2016-03-05T04:43:09.193Z,0
2016-03-05T04:44:09.227Z,0
2016-03-05T04:45:09.229Z,0
2016-03-05T04:46:09.247Z,0
2016-03-05T04:47:09.250Z,0
2016-03-05T04:48:09.285Z,0
2016-03-05T04:49:09.287Z,0
2016-03-05T04:50:09.306Z,0
2016-03-05T04:51:09.339Z,0
2016-03-05T04:52:09.358Z,0
2016-03-05T04:53:09.391Z,0
2016-03-05T04:54:09.378Z,0
2016-03-05T04:55:09.413Z,0
2016-03-05T04:56:09.416Z,0
2016-03-05T04:57:09.434Z,0
2016-03-05T04:58:09.437Z,0
2016-03-05T04:59:09.502Z,0
2016-03-05T05:00:09.488Z,0
2016-03-05T05:01:09.507Z,0
2016-03-05T05:02:09.510Z,0
2016-03-05T05:03:09.560Z,0
2016-03-05T05:04:09.547Z,0
2016-03-05T05:05:09.565Z,0
2016-03-05T05:06:09.490Z,0
2016-03-05T05:07:09.602Z,0
2016-03-05T05:08:09.620Z,0
2016-03-05T05:09:09.622Z,0
2016-03-05T05:10:09.673Z,0
2016-03-05T05:11:09.661Z,0
2016-03-05T05:12:09.710Z,0
2016-03-05T05:13:09.697Z,0
2016-03-05T05:14:09.730Z,0
2016-03-05T05:15:09.733Z,0
2016-03-05T05:16:09.782Z,0
2016-03-05T05:17:09.754Z,0
2016-03-05T05:18:09.804Z,0
2016-03-05T05:19:09.775Z,0
2016-03-05T05:20:09.841Z,0
2016-03-05T05:21:09.827Z,0
2016-03-05T05:22:09.877Z,0
2016-03-05T05:23:09.864Z,0
2016-03-05T05:24:09.867Z,0
2016-03-05T05:25:09.900Z,0
2016-03-05T05:26:09.904Z,0
2016-03-05T05:27:09.938Z,0
2016-03-05T05:28:09.940Z,0
2016-03-05T05:29:09.974Z,0
2016-03-05T05:30:09.992Z,0
2016-03-05T05:31:09.995Z,4
2016-03-05T05:32:10.014Z,4
2016-03-05T05:33:10.016Z,0
2016-03-05T05:34:10.050Z,4
2016-03-05T05:35:10.067Z,4
2016-03-05T05:36:10.103Z,4
2016-03-05T05:37:10.089Z,8
2016-03-05T05:38:10.138Z,8
2016-03-05T05:39:10.110Z,8
2016-03-05T05:40:10.160Z,8
2016-03-05T05:41:10.006Z,8
2016-03-05T05:42:10.228Z,12
2016-03-05T05:43:10.074Z,12
2016-03-05T05:44:10.249Z,12
2016-03-05T05:45:10.236Z,12
2016-03-05T05:46:10.222Z,16
2016-03-05T05:47:10.257Z,16
2016-03-05T05:48:10.259Z,16
2016-03-05T05:49:10.294Z,20
2016-03-05T05:50:10.327Z,24
2016-03-05T05:51:10.330Z,24
2016-03-05T05:52:10.363Z,28
2016-03-05T05:53:10.351Z,28
2016-03-05T05:54:10.384Z,28
2016-03-05T05:55:10.404Z,32
2016-03-05T05:56:10.422Z,36
2016-03-05T05:57:10.409Z,44
2016-03-05T05:58:10.443Z,48
2016-03-05T05:59:10.461Z,52
2016-03-05T06:00:10.479Z,56
2016-03-05T06:01:10.513Z,60
2016-03-05T06:02:10.500Z,64
2016-03-05T06:03:10.551Z,68
2016-03-05T06:04:10.537Z,68
2016-03-05T06:05:10.587Z,76
2016-03-05T06:06:10.573Z,80
2016-03-05T06:07:10.592Z,84
2016-03-05T06:08:10.611Z,96
2016-03-05T06:09:09.894Z,96
2016-03-05T06:10:10.662Z,104
2016-03-05T06:11:10.650Z,112
2016-03-05T06:12:10.700Z,120
2016-03-05T06:13:10.686Z,124
2016-03-05T06:14:10.752Z,136
2016-03-05T06:15:10.738Z,144
2016-03-05T06:16:10.741Z,148
2016-03-05T06:17:10.790Z,156
2016-03-05T06:18:10.777Z,156
2016-03-05T06:19:10.797Z,160
2016-03-05T06:20:10.861Z,160
2016-03-05T06:21:10.833Z,160
2016-03-05T06:22:10.835Z,164
2016-03-05T06:23:10.868Z,168
2016-03-05T06:24:10.871Z,168
2016-03-05T06:25:10.890Z,168
2016-03-05T06:26:10.909Z,172
2016-03-05T06:27:10.943Z,188
2016-03-05T06:28:10.946Z,208
2016-03-05T06:29:10.995Z,224
2016-03-05T06:30:10.997Z,228
2016-03-05T06:31:11.031Z,232
2016-03-05T06:32:11.019Z,248
2016-03-05T06:33:11.021Z,256
2016-03-05T06:34:11.055Z,264
2016-03-05T06:35:11.059Z,280
2016-03-05T06:36:11.092Z,304
2016-03-05T06:37:11.094Z,324
2016-03-05T06:38:11.144Z,344
2016-03-05T06:39:11.131Z,364
2016-03-05T06:40:11.134Z,388
2016-03-05T06:41:11.153Z,408
2016-03-05T06:42:11.186Z,424
2016-03-05T06:43:11.189Z,432
2016-03-05T06:44:11.238Z,424
2016-03-05T06:45:11.225Z,408
2016-03-05T06:46:11.258Z,400
2016-03-05T06:47:11.246Z,408
2016-03-05T06:48:11.312Z,412
2016-03-05T06:49:11.283Z,384
2016-03-05T06:50:11.349Z,352
2016-03-05T06:51:11.335Z,320
2016-03-05T06:52:11.338Z,308
2016-03-05T06:53:11.356Z,324
2016-03-05T06:54:11.374Z,320
2016-03-05T06:55:11.424Z,316
2016-03-05T06:56:11.396Z,328
2016-03-05T06:57:11.414Z,320
2016-03-05T06:58:11.432Z,320
2016-03-05T06:59:11.451Z,324
2016-03-05T07:00:11.484Z,348
2016-03-05T07:01:11.503Z,368
2016-03-05T07:02:11.537Z,376
2016-03-05T07:03:11.539Z,380
2016-03-05T07:04:11.558Z,404
2016-03-05T07:05:11.545Z,424
2016-03-05T07:06:11.595Z,424
2016-03-05T07:07:11.612Z,444
2016-03-05T07:08:11.631Z,448
2016-03-05T07:09:11.664Z,440
2016-03-05T07:10:11.636Z,424
2016-03-05T07:11:11.670Z,432
2016-03-05T07:12:11.704Z,460
2016-03-05T07:13:11.722Z,492
2016-03-05T07:14:11.709Z,516
2016-03-05T07:15:11.727Z,528
2016-03-05T07:16:11.730Z,524
2016-03-05T07:17:11.780Z,516
2016-03-05T07:18:11.767Z,524
2016-03-05T07:19:11.817Z,532
2016-03-05T07:20:11.805Z,536
2016-03-05T07:21:11.822Z,568
2016-03-05T07:22:11.855Z,604
2016-03-05T07:23:11.858Z,644
2016-03-05T07:24:11.877Z,688
2016-03-05T07:25:11.896Z,704
2016-03-05T07:26:11.913Z,704
2016-03-05T07:27:11.948Z,704
2016-03-05T07:28:11.935Z,716
2016-03-05T07:29:12.016Z,712
2016-03-05T07:30:12.034Z,688
2016-03-05T07:31:12.021Z,652
2016-03-05T07:32:12.007Z,624
2016-03-05T07:33:12.043Z,644
2016-03-05T07:34:12.045Z,660
2016-03-05T07:35:12.094Z,664
2016-03-05T07:36:12.284Z,696
2016-03-05T07:37:12.131Z,740
2016-03-05T07:38:12.133Z,800
2016-03-05T07:39:12.136Z,852
2016-03-05T07:40:12.139Z,852
2016-03-05T07:41:12.173Z,832
2016-03-05T07:42:12.176Z,824
2016-03-05T07:43:12.194Z,836
2016-03-05T07:44:12.212Z,860
2016-03-05T07:45:12.246Z,868
2016-03-05T07:46:12.249Z,888
2016-03-05T07:47:12.298Z,892
2016-03-05T07:48:12.269Z,916
2016-03-05T07:49:12.320Z,936
2016-03-05T07:50:12.322Z,960
2016-03-05T07:51:12.341Z,968
2016-03-05T07:52:12.343Z,944
2016-03-05T07:53:12.377Z,912
2016-03-05T07:54:12.521Z,920
2016-03-05T07:55:12.398Z,952
2016-03-05T07:56:12.432Z,1024
2016-03-05T07:57:12.435Z,1088
2016-03-05T07:58:12.469Z,1124
2016-03-05T07:59:12.471Z,1152
2016-03-05T08:00:12.505Z,1176
2016-03-05T08:01:12.492Z,1180
2016-03-05T08:02:12.527Z,1192
2016-03-05T08:03:12.545Z,1228
2016-03-05T08:04:12.579Z,1248
2016-03-05T08:05:12.582Z,1224
2016-03-05T08:06:12.585Z,1116
2016-03-05T08:07:12.634Z,996
2016-03-05T08:08:12.621Z,916
2016-03-05T08:09:12.640Z,904
2016-03-05T08:10:12.658Z,908
2016-03-05T08:11:12.692Z,920
2016-03-05T08:12:12.710Z,928
2016-03-05T08:13:12.744Z,960
2016-03-05T08:14:12.715Z,1020
2016-03-05T08:15:12.749Z,1076
2016-03-05T08:16:12.768Z,1104
2016-03-05T08:17:12.755Z,1132
2016-03-05T08:18:12.790Z,1156
2016-03-05T08:19:12.854Z,1168
2016-03-05T08:20:12.825Z,1172
2016-03-05T08:21:12.844Z,1188
2016-03-05T08:22:12.878Z,1236
2016-03-05T08:23:12.975Z,1292
2016-03-05T08:24:12.915Z,1292
2016-03-05T08:25:12.948Z,1248
2016-03-05T08:26:12.951Z,1200
2016-03-05T08:27:12.954Z,1184
2016-03-05T08:28:12.972Z,1192
2016-03-05T08:29:12.991Z,1220
2016-03-05T08:30:12.993Z,1268
2016-03-05T08:31:13.027Z,1316
2016-03-05T08:32:13.045Z,1332
2016-03-05T08:33:13.063Z,1312
2016-03-05T08:34:13.098Z,1248
2016-03-05T08:35:13.085Z,1204
2016-03-05T08:36:13.103Z,1184
2016-03-05T08:37:13.137Z,1168
2016-03-05T08:38:13.155Z,1148
2016-03-05T08:39:13.143Z,1132
2016-03-05T08:40:13.176Z,1128
2016-03-05T08:41:13.194Z,1144
2016-03-05T08:42:13.213Z,1168
2016-03-05T08:43:13.232Z,1192
2016-03-05T08:44:13.265Z,1220
2016-03-05T08:45:13.268Z,1260
2016-03-05T08:46:13.287Z,1292
2016-03-05T08:47:13.304Z,1296
2016-03-05T08:48:13.338Z,1296
2016-03-05T08:49:13.340Z,1308
2016-03-05T08:50:13.360Z,1316
2016-03-05T08:51:13.221Z,1300
2016-03-05T08:52:13.412Z,1296
2016-03-05T08:53:13.414Z,1320
2016-03-05T08:54:13.479Z,1364
2016-03-05T08:55:13.451Z,1376
2016-03-05T08:56:13.453Z,1348
2016-03-05T08:57:13.487Z,1328
2016-03-05T08:58:13.490Z,1332
2016-03-05T08:59:13.525Z,1348
2016-03-05T09:00:13.574Z,1368
2016-03-05T09:01:13.545Z,1364
2016-03-05T09:02:13.564Z,1356
2016-03-05T09:03:13.583Z,1360
2016-03-05T09:04:13.585Z,1352
2016-03-05T09:05:13.618Z,1324
2016-03-05T09:06:13.636Z,1300
2016-03-05T09:07:13.686Z,1244
2016-03-05T09:08:13.674Z,1184
2016-03-05T09:09:13.692Z,1124
2016-03-05T09:10:13.710Z,1068
2016-03-05T09:11:13.729Z,1036
2016-03-05T09:12:13.746Z,1024
2016-03-05T09:13:13.796Z,1024
2016-03-05T09:14:13.783Z,1016
2016-03-05T09:15:13.802Z,1012
2016-03-05T09:16:13.820Z,1032
2016-03-05T09:17:13.870Z,1064
2016-03-05T09:18:13.872Z,1080
2016-03-05T09:19:13.875Z,1104
2016-03-05T09:20:13.909Z,1152
2016-03-05T09:21:13.912Z,1196
2016-03-05T09:22:13.976Z,1228
2016-03-05T09:23:13.964Z,1252
2016-03-05T09:24:13.967Z,1292
2016-03-05T09:25:13.984Z,1332
2016-03-05T09:26:14.003Z,1360
2016-03-05T09:27:14.010Z,1396
2016-03-05T09:28:14.013Z,1464
2016-03-05T09:29:14.032Z,1516
2016-03-05T09:30:14.021Z,1512
2016-03-05T09:31:14.025Z,1516
2016-03-05T09:32:14.022Z,1540
2016-03-05T09:33:14.050Z,1560
2016-03-05T09:34:14.095Z,1592
2016-03-05T09:35:14.093Z,1628
2016-03-05T09:36:14.091Z,1644
2016-03-05T09:37:14.107Z,1704
2016-03-05T09:38:14.108Z,1720
2016-03-05T09:39:14.140Z,1644
2016-03-05T09:40:14.156Z,1636
2016-03-05T09:41:14.188Z,1672
2016-03-05T09:42:14.237Z,1716
2016-03-05T09:43:14.193Z,1752
2016-03-05T09:44:14.226Z,1752
2016-03-05T09:45:14.244Z,1756
2016-03-05T09:46:14.247Z,1776
2016-03-05T09:47:14.327Z,1708
2016-03-05T09:48:14.329Z,1652
2016-03-05T09:49:14.331Z,1684
2016-03-05T09:50:14.349Z,1692
2016-03-05T09:51:14.352Z,1696
2016-03-05T09:52:14.370Z,1732
2016-03-05T09:53:14.403Z,1700
2016-03-05T09:54:14.422Z,1664
2016-03-05T09:55:14.284Z,1692
2016-03-05T09:56:14.475Z,1716
2016-03-05T09:57:14.461Z,1724
2016-03-05T09:58:14.480Z,1780
2016-03-05T09:59:14.499Z,1800
2016-03-05T10:00:14.548Z,1780
2016-03-05T10:01:14.566Z,1732
2016-03-05T10:02:14.584Z,1708
2016-03-05T10:03:14.587Z,1648
2016-03-05T10:04:14.433Z,1644
2016-03-05T10:05:14.671Z,1632
2016-03-05T10:06:14.658Z,1588
2016-03-05T10:07:14.660Z,1572
2016-03-05T10:08:14.679Z,1556
2016-03-05T10:09:14.681Z,1520
2016-03-05T10:10:14.715Z,1496
2016-03-05T10:11:14.748Z,1452
2016-03-05T10:12:14.737Z,1408
2016-03-05T10:13:14.817Z,1448
2016-03-05T10:14:14.789Z,1484
2016-03-05T10:15:14.807Z,1528
2016-03-05T10:16:14.826Z,1564
2016-03-05T10:17:14.828Z,1676
2016-03-05T10:18:14.845Z,1508
2016-03-05T10:19:14.989Z,1464
2016-03-05T10:20:14.914Z,1508
2016-03-05T10:21:14.917Z,1448
2016-03-05T10:22:14.951Z,1436
2016-03-05T10:23:14.953Z,1488
2016-03-05T10:24:14.987Z,1452
2016-03-05T10:25:14.989Z,1496
2016-03-05T10:26:15.024Z,1524
2016-03-05T10:27:15.042Z,1488
2016-03-05T10:28:15.045Z,1384
2016-03-05T10:29:15.095Z,1196
2016-03-05T10:30:15.082Z,996
2016-03-05T10:31:15.116Z,968
2016-03-05T10:32:15.118Z,1028
2016-03-05T10:33:15.152Z,1140
2016-03-05T10:34:15.170Z,1252
2016-03-05T10:35:15.204Z,1264
2016-03-05T10:36:15.082Z,1304
2016-03-05T10:37:15.226Z,1376
2016-03-05T10:38:15.244Z,1404
2016-03-05T10:39:15.262Z,1464
2016-03-05T10:40:15.140Z,1508
2016-03-05T10:41:15.314Z,1540
2016-03-05T10:42:15.317Z,1556
2016-03-05T10:43:15.334Z,1540
2016-03-05T10:44:15.370Z,1560
2016-03-05T10:45:15.388Z,1572
2016-03-05T10:46:15.421Z,1568
2016-03-05T10:47:15.424Z,1524
2016-03-05T10:48:15.505Z,1504
2016-03-05T10:49:15.461Z,1480
2016-03-05T10:50:15.479Z,1496
2016-03-05T10:51:15.404Z,1524
2016-03-05T10:52:15.547Z,1564
2016-03-05T10:53:15.534Z,1604
2016-03-05T10:54:15.568Z,1640
2016-03-05T10:55:15.586Z,1656
2016-03-05T10:56:15.605Z,1652
2016-03-05T10:57:15.622Z,1620
2016-03-05T10:58:15.642Z,1576
2016-03-05T10:59:15.659Z,1540
2016-03-05T11:00:15.694Z,1416
2016-03-05T11:01:15.711Z,1404
2016-03-05T11:02:15.714Z,1408
2016-03-05T11:03:15.732Z,1336
2016-03-05T11:04:15.751Z,1356
2016-03-05T11:05:15.785Z,1416
2016-03-05T11:06:15.835Z,1520
2016-03-05T11:07:15.821Z,1524
2016-03-05T11:08:15.841Z,1428
2016-03-05T11:09:15.874Z,1312
2016-03-05T11:10:15.876Z,1296
2016-03-05T11:11:15.926Z,1276
2016-03-05T11:12:15.928Z,1256
2016-03-05T11:13:15.948Z,1228
2016-03-05T11:14:15.950Z,1144
2016-03-05T11:15:15.999Z,1176
2016-03-05T11:16:16.002Z,1156
2016-03-05T11:17:16.036Z,1192
2016-03-05T11:18:16.039Z,1188
2016-03-05T11:19:16.103Z,1216
2016-03-05T11:20:16.075Z,1196
2016-03-05T11:21:16.141Z,1288
2016-03-05T11:22:16.128Z,1340
2016-03-05T11:23:16.131Z,1496
2016-03-05T11:24:16.164Z,2076
2016-03-05T11:25:16.198Z,2312
2016-03-05T11:26:16.200Z,2124
2016-03-05T11:27:16.297Z,1980
2016-03-05T11:28:16.237Z,2076
2016-03-05T11:29:16.271Z,2064
2016-03-05T11:30:16.275Z,2124
2016-03-05T11:31:16.292Z,1920
2016-03-05T11:32:16.327Z,1724
2016-03-05T11:33:16.344Z,1480
2016-03-05T11:34:16.379Z,1588
2016-03-05T11:35:16.396Z,1740
2016-03-05T11:36:16.430Z,1788
2016-03-05T11:37:16.450Z,1844
2016-03-05T11:38:16.452Z,1948
2016-03-05T11:39:16.486Z,2036
2016-03-05T11:40:16.488Z,2132
2016-03-05T11:41:16.538Z,2248
2016-03-05T11:42:16.540Z,2340
2016-03-05T11:43:16.559Z,2380
2016-03-05T11:44:16.593Z,2292
2016-03-05T11:45:16.596Z,2196
2016-03-05T11:46:16.630Z,2108
2016-03-05T11:47:16.632Z,2020
2016-03-05T11:48:16.698Z,2024
2016-03-05T11:49:16.669Z,2056
2016-03-05T11:50:16.704Z,2072
2016-03-05T11:51:16.799Z,2008
2016-03-05T11:52:16.756Z,1920
2016-03-05T11:53:16.773Z,1832
2016-03-05T11:54:16.808Z,1844
2016-03-05T11:55:16.810Z,1856
2016-03-05T11:56:16.859Z,1892
2016-03-05T11:57:16.847Z,1936
2016-03-05T11:58:16.864Z,1976
2016-03-05T11:59:16.900Z,2008
2016-03-05T12:00:16.917Z,2032
2016-03-05T12:01:16.952Z,2036
2016-03-05T12:02:16.985Z,2012
2016-03-05T12:03:16.988Z,1988
2016-03-05T12:04:17.006Z,1968
2016-03-05T12:05:17.040Z,1924
2016-03-05T12:06:16.919Z,1860
2016-03-05T12:07:17.061Z,1800
2016-03-05T12:08:17.111Z,1772
2016-03-05T12:09:17.130Z,1788
2016-03-05T12:10:17.147Z,1828
2016-03-05T12:11:17.149Z,1860
2016-03-05T12:12:17.231Z,1880
2016-03-05T12:13:17.030Z,1876
2016-03-05T12:14:17.236Z,1852
2016-03-05T12:15:17.240Z,1816
2016-03-05T12:16:17.288Z,1776
2016-03-05T12:17:17.276Z,1740
2016-03-05T12:18:17.309Z,1708
2016-03-05T12:19:17.328Z,1704
2016-03-05T12:20:17.346Z,1760
2016-03-05T12:21:17.426Z,1832
2016-03-05T12:22:17.415Z,1860
2016-03-05T12:23:17.417Z,1860
2016-03-05T12:24:17.451Z,1852
2016-03-05T12:25:17.470Z,1836
2016-03-05T12:26:17.487Z,1824
2016-03-05T12:27:17.505Z,1820
2016-03-05T12:28:17.539Z,1856
2016-03-05T12:29:17.558Z,1904
2016-03-05T12:30:17.576Z,1920
2016-03-05T12:31:17.595Z,1884
2016-03-05T12:32:17.613Z,1836
2016-03-05T12:33:17.256Z,1792
2016-03-05T12:34:17.649Z,1740
2016-03-05T12:35:17.699Z,1692
2016-03-05T12:36:17.717Z,1648
2016-03-05T12:37:17.719Z,1608
2016-03-05T12:38:17.755Z,1572
2016-03-05T12:39:17.804Z,1560
2016-03-05T12:40:17.791Z,1560
2016-03-05T12:41:17.809Z,1548
2016-03-05T12:42:17.858Z,1516
2016-03-05T12:43:17.861Z,1452
2016-03-05T12:44:17.879Z,1388
2016-03-05T12:45:17.913Z,1328
2016-03-05T12:46:17.916Z,1268
2016-03-05T12:47:17.951Z,1224
2016-03-05T12:48:17.984Z,1188
2016-03-05T12:49:18.002Z,1168
2016-03-05T12:50:18.020Z,1144
2016-03-05T12:51:18.055Z,1116
2016-03-05T12:52:18.073Z,1092
2016-03-05T12:53:18.091Z,1084
2016-03-05T12:54:18.110Z,1156
2016-03-05T12:55:18.128Z,1328
2016-03-05T12:56:18.146Z,1584
2016-03-05T12:57:18.180Z,1900
2016-03-05T12:58:18.198Z,2132
2016-03-05T12:59:18.233Z,2200
2016-03-05T13:00:18.282Z,2156
2016-03-05T13:01:18.284Z,2024
2016-03-05T13:02:18.319Z,1860
2016-03-05T13:03:18.321Z,1772
2016-03-05T13:04:18.324Z,1784
2016-03-05T13:05:18.358Z,1804
2016-03-05T13:06:18.376Z,1804
2016-03-05T13:07:18.411Z,1796
2016-03-05T13:08:18.428Z,1808
2016-03-05T13:09:18.430Z,1820
2016-03-05T13:10:18.480Z,1800
2016-03-05T13:11:18.499Z,1748
2016-03-05T13:12:18.518Z,1712
2016-03-05T13:13:18.535Z,1708
2016-03-05T13:14:18.554Z,1724
2016-03-05T13:15:18.447Z,1744
2016-03-05T13:16:18.607Z,1772
2016-03-05T13:17:18.656Z,1796
2016-03-05T13:18:18.659Z,1788
2016-03-05T13:19:18.676Z,1764
2016-03-05T13:20:18.695Z,1728
2016-03-05T13:21:18.729Z,1716
2016-03-05T13:22:18.747Z,1736
2016-03-05T13:23:18.751Z,1740
2016-03-05T13:24:18.784Z,1724
2016-03-05T13:25:18.803Z,1704
2016-03-05T13:26:18.836Z,1684
2016-03-05T13:27:18.854Z,1644
2016-03-05T13:28:18.889Z,1580
2016-03-05T13:29:18.907Z,1492
2016-03-05T13:30:18.925Z,1416
2016-03-05T13:31:19.099Z,1372
2016-03-05T13:32:18.992Z,1388
2016-03-05T13:33:18.980Z,1468
2016-03-05T13:34:19.014Z,1624
2016-03-05T13:35:19.048Z,1872
2016-03-05T13:36:19.067Z,2164
2016-03-05T13:37:19.085Z,2356
2016-03-05T13:38:19.134Z,2348
2016-03-05T13:39:19.184Z,2148
2016-03-05T13:40:19.155Z,1904
2016-03-05T13:41:19.174Z,1768
2016-03-05T13:42:19.224Z,1748
2016-03-05T13:43:19.227Z,1780
2016-03-05T13:44:19.244Z,1796
2016-03-05T13:45:19.294Z,1776
2016-03-05T13:46:19.280Z,1756
2016-03-05T13:47:19.315Z,1772
2016-03-05T13:48:19.333Z,1836
2016-03-05T13:49:19.367Z,1896
2016-03-05T13:50:19.385Z,1920
2016-03-05T13:51:19.403Z,1944
2016-03-05T13:52:19.438Z,1864
2016-03-05T13:53:19.456Z,1760
2016-03-05T13:54:19.490Z,1760
2016-03-05T13:55:19.492Z,1852
2016-03-05T13:56:19.948Z,1928
2016-03-05T13:57:19.576Z,1904
2016-03-05T13:58:19.578Z,1804